createdAt,value
2018-12-18T00:00:15.039Z,98511.53
2018-12-18T00:02:45.287Z,98507.05
2018-12-18T00:08:11.501Z,98510.56
2018-12-18T00:10:45.254Z,98513.55
2018-12-18T00:13:13.433Z,98513.55
2018-12-18T00:15:41.622Z,98514.67
2018-12-18T00:18:09.984Z,98507.66
2018-12-18T00:20:38.175Z,98504.80
2018-12-18T00:23:06.363Z,98509.95
2018-12-18T00:25:34.561Z,98512.67
2018-12-18T00:28:02.745Z,98510.59
2018-12-18T00:30:30.924Z,98513.30
2018-12-18T00:32:59.115Z,98516.03
2018-12-18T00:35:27.306Z,98508.09
2018-12-18T00:37:55.685Z,98508.77
2018-12-18T00:40:23.877Z,98510.08
2018-12-18T00:42:52.053Z,98511.20
2018-12-18T00:45:20.239Z,98522.23
2018-12-18T00:47:48.500Z,98519.98
2018-12-18T00:50:16.692Z,98523.64
2018-12-18T00:52:45.563Z,98526.98
2018-12-18T00:55:14.377Z,98525.69
2018-12-18T00:57:42.548Z,98529.19
2018-12-18T01:00:11.064Z,98522.80
2018-12-18T01:02:39.271Z,98528.69
2018-12-18T01:05:07.462Z,98522.20
2018-12-18T01:07:35.656Z,98523.45
2018-12-18T01:10:05.968Z,98525.92
2018-12-18T01:12:34.273Z,98522.52
2018-12-18T01:15:02.502Z,98525.47
2018-12-18T01:17:30.937Z,98531.23
2018-12-18T01:19:59.108Z,98526.42
2018-12-18T01:22:27.296Z,98535.81
2018-12-18T01:24:55.612Z,98534.67
2018-12-18T01:27:24.598Z,98532.11
2018-12-18T01:29:52.812Z,98534.88
2018-12-18T01:32:21.043Z,98538.67
2018-12-18T01:34:49.433Z,98538.98
2018-12-18T01:37:18.499Z,98531.33
2018-12-18T01:39:46.728Z,98528.63
2018-12-18T01:42:14.919Z,98535.34
2018-12-18T01:44:43.251Z,98524.48
2018-12-18T01:47:11.449Z,98526.52
2018-12-18T01:49:39.616Z,98524.92
2018-12-18T01:52:07.792Z,98518.58
2018-12-18T01:54:36.001Z,98527.02
2018-12-18T01:57:04.180Z,98529.24
2018-12-18T01:59:32.378Z,98523.48
2018-12-18T02:02:00.574Z,98521.91
2018-12-18T02:04:28.757Z,98519.34
2018-12-18T02:06:56.937Z,98530.86
2018-12-18T02:09:25.140Z,98526.84
2018-12-18T02:11:53.320Z,98527.95
2018-12-18T02:14:21.494Z,98525.75
2018-12-18T02:16:49.796Z,98520.47
2018-12-18T02:19:17.980Z,98522.37
2018-12-18T02:21:46.156Z,98526.83
2018-12-18T02:24:14.455Z,98524.73
2018-12-18T02:26:42.628Z,98520.13
2018-12-18T02:29:16.753Z,98525.69
2018-12-18T02:31:44.934Z,98526.01
2018-12-18T02:34:13.964Z,98527.73
2018-12-18T02:36:42.400Z,98531.69
2018-12-18T02:39:10.587Z,98532.97
2018-12-18T02:41:38.777Z,98543.02
2018-12-18T02:44:06.992Z,98542.23
2018-12-18T02:46:35.243Z,98540.30
2018-12-18T02:49:03.443Z,98532.04
2018-12-18T02:51:31.803Z,98540.98
2018-12-18T02:53:59.992Z,98547.25
2018-12-18T02:56:28.176Z,98545.20
2018-12-18T02:58:56.504Z,98534.70
2018-12-18T03:01:24.691Z,98542.03
2018-12-18T03:03:52.876Z,98544.18
2018-12-18T03:06:21.140Z,98548.10
2018-12-18T03:08:49.322Z,98544.07
2018-12-18T03:11:21.043Z,98548.86
2018-12-18T03:13:49.220Z,98545.33
2018-12-18T03:16:18.144Z,98542.62
2018-12-18T03:18:46.383Z,98545.95
2018-12-18T03:21:14.668Z,98548.31
2018-12-18T03:23:42.844Z,98552.13
2018-12-18T03:26:11.044Z,98547.95
2018-12-18T03:28:39.225Z,98547.22
2018-12-18T03:31:07.434Z,98547.69
2018-12-18T03:33:35.743Z,98544.44
2018-12-18T03:36:03.921Z,98544.58
2018-12-18T03:38:32.112Z,98555.42
2018-12-18T03:41:00.450Z,98560.03
2018-12-18T03:43:28.632Z,98554.08
2018-12-18T03:45:56.806Z,98554.23
2018-12-18T03:48:25.086Z,98555.31
2018-12-18T03:50:53.260Z,98554.02
2018-12-18T03:53:21.605Z,98555.94
2018-12-18T03:55:49.808Z,98556.70
2018-12-18T03:58:17.977Z,98562.09
2018-12-18T04:00:46.158Z,98560.66
2018-12-18T04:03:14.370Z,98561.33
2018-12-18T04:05:42.651Z,98562.09
2018-12-18T04:08:10.832Z,98556.52
2018-12-18T04:10:39.039Z,98556.18
2018-12-18T04:13:07.215Z,98553.81
2018-12-18T04:15:35.506Z,98564.48
2018-12-18T04:18:03.785Z,98567.33
2018-12-18T04:20:32.090Z,98566.99
2018-12-18T04:23:00.273Z,98555.37
2018-12-18T04:25:28.493Z,98555.11
2018-12-18T04:27:56.672Z,98560.52
2018-12-18T04:30:24.853Z,98562.39
2018-12-18T04:32:53.065Z,98561.41
2018-12-18T04:35:21.516Z,98566.98
2018-12-18T04:37:49.708Z,98561.39
2018-12-18T04:40:17.929Z,98558.34
2018-12-18T04:42:46.243Z,98560.20
2018-12-18T04:45:15.787Z,98560.30
2018-12-18T04:47:44.393Z,98563.62
2018-12-18T04:50:12.567Z,98571.44
2018-12-18T04:52:40.760Z,98567.76
2018-12-18T04:55:09.063Z,98572.88
2018-12-18T04:57:37.245Z,98574.74
2018-12-18T05:00:08.046Z,98575.10
2018-12-18T05:02:36.246Z,98587.34
2018-12-18T05:05:04.424Z,98590.83
2018-12-18T05:07:32.606Z,98589.55
2018-12-18T05:10:00.832Z,98585.13
2018-12-18T05:12:29.046Z,98589.94
2018-12-18T05:14:57.227Z,98579.91
2018-12-18T05:17:25.440Z,98584.02
2018-12-18T05:19:53.734Z,98593.23
2018-12-18T05:22:21.912Z,98597.70
2018-12-18T05:24:50.127Z,98599.14
2018-12-18T05:27:18.869Z,98596.91
2018-12-18T05:29:47.059Z,98604.03
2018-12-18T05:32:15.320Z,98609.48
2018-12-18T05:34:43.504Z,98613.02
2018-12-18T05:37:11.692Z,98613.84
2018-12-18T05:39:39.912Z,98613.94
2018-12-18T05:42:08.105Z,98612.66
2018-12-18T05:44:36.287Z,98613.91
2018-12-18T05:47:04.481Z,98619.03
2018-12-18T05:49:32.664Z,98621.73
2018-12-18T05:52:00.840Z,98620.30
2018-12-18T05:54:29.049Z,98634.61
2018-12-18T05:56:57.304Z,98636.99
2018-12-18T05:59:25.496Z,98635.09
2018-12-18T06:01:53.792Z,98635.86
2018-12-18T06:04:21.974Z,98637.95
2018-12-18T06:06:50.275Z,98640.23
2018-12-18T06:09:18.496Z,98645.34
2018-12-18T06:11:46.684Z,98639.56
2018-12-18T06:14:14.861Z,98643.38
2018-12-18T06:16:43.225Z,98637.30
2018-12-18T06:19:11.402Z,98645.82
2018-12-18T06:21:39.707Z,98645.27
2018-12-18T06:24:07.906Z,98653.89
2018-12-18T06:26:36.112Z,98653.84
2018-12-18T06:29:04.291Z,98658.25
2018-12-18T06:31:32.562Z,98669.41
2018-12-18T06:34:00.762Z,98666.36
2018-12-18T06:36:28.974Z,98670.36
2018-12-18T06:38:57.231Z,98667.31
2018-12-18T06:41:25.416Z,98669.52
2018-12-18T06:43:53.613Z,98669.97
2018-12-18T06:46:21.835Z,98673.14
2018-12-18T06:48:50.012Z,98675.33
2018-12-18T06:51:18.343Z,98674.89
2018-12-18T06:53:46.553Z,98677.89
2018-12-18T06:56:14.753Z,98680.02
2018-12-18T06:58:43.019Z,98683.09
2018-12-18T07:01:11.204Z,98676.11
2018-12-18T07:03:39.451Z,98679.83
2018-12-18T07:06:07.623Z,98687.80
2018-12-18T07:08:35.851Z,98692.92
2018-12-18T07:11:04.041Z,98697.13
2018-12-18T07:13:32.416Z,98702.60
2018-12-18T07:16:01.104Z,98704.99
2018-12-18T07:18:29.291Z,98705.95
2018-12-18T07:20:57.481Z,98707.86
2018-12-18T07:23:25.680Z,98715.18
2018-12-18T07:25:53.852Z,98715.82
2018-12-18T07:28:22.217Z,98716.52
2018-12-18T07:30:50.546Z,98712.84
2018-12-18T07:33:18.718Z,98718.30
2018-12-18T07:35:46.895Z,98725.37
2018-12-18T07:38:15.324Z,98719.84
2018-12-18T07:40:43.498Z,98715.97
2018-12-18T07:43:11.782Z,98720.02
2018-12-18T07:45:40.110Z,98720.81
2018-12-18T07:48:08.345Z,98719.63
2018-12-18T07:50:36.650Z,98717.19
2018-12-18T07:53:04.858Z,98716.47
2018-12-18T07:55:33.159Z,98723.34
2018-12-18T07:58:01.343Z,98724.34
2018-12-18T08:00:29.568Z,98729.50
2018-12-18T08:02:57.756Z,98722.52
2018-12-18T08:05:29.920Z,98720.47
2018-12-18T08:07:56.182Z,98722.64
2018-12-18T08:10:24.379Z,98724.27
2018-12-18T08:12:52.554Z,98727.35
2018-12-18T08:15:20.764Z,98726.75
2018-12-18T08:17:48.941Z,98724.42
2018-12-18T08:20:17.162Z,98730.86
2018-12-18T08:22:45.584Z,98736.95
2018-12-18T08:25:13.773Z,98742.96
2018-12-18T08:27:41.967Z,98738.84
2018-12-18T08:30:10.399Z,98737.91
2018-12-18T08:32:38.618Z,98740.35
2018-12-18T08:35:07.026Z,98743.26
2018-12-18T08:37:35.378Z,98738.46
2018-12-18T08:40:04.367Z,98724.16
2018-12-18T08:42:32.552Z,98720.35
2018-12-18T08:45:00.774Z,98720.04
2018-12-18T08:47:29.050Z,98726.17
2018-12-18T08:49:57.239Z,98722.36
2018-12-18T08:52:25.481Z,98725.63
2018-12-18T08:54:53.660Z,98723.31
2018-12-18T08:57:21.983Z,98728.97
2018-12-18T08:59:50.281Z,98731.03
2018-12-18T09:02:24.503Z,98728.34
2018-12-18T09:04:52.767Z,98723.09
2018-12-18T09:07:20.940Z,98719.79
2018-12-18T09:09:49.131Z,98729.88
2018-12-18T09:12:17.334Z,98723.84
2018-12-18T09:14:47.545Z,98719.69
2018-12-18T09:17:17.781Z,98720.83
2018-12-18T09:19:45.953Z,98711.77
2018-12-18T09:22:14.126Z,98703.14
2018-12-18T09:24:42.488Z,98710.36
2018-12-18T09:27:10.665Z,98714.34
2018-12-18T09:29:38.858Z,98710.83
2018-12-18T09:32:07.041Z,98710.33
2018-12-18T09:34:35.220Z,98709.38
2018-12-18T09:37:03.570Z,98706.27
2018-12-18T09:39:37.380Z,98703.05
2018-12-18T09:42:11.023Z,98706.51
2018-12-18T09:44:39.226Z,98699.84
2018-12-18T09:47:07.526Z,98692.95
2018-12-18T09:49:35.697Z,98687.52
2018-12-18T09:52:03.893Z,98684.61
2018-12-18T09:54:32.270Z,98676.00
2018-12-18T09:57:00.766Z,98666.13
2018-12-18T09:59:28.985Z,98673.55
2018-12-18T10:01:57.393Z,98667.14
2018-12-18T10:04:25.564Z,98663.14
2018-12-18T10:06:53.779Z,98659.31
2018-12-18T10:09:21.957Z,98650.23
2018-12-18T10:11:50.290Z,98646.66
2018-12-18T10:14:18.487Z,98644.13
2018-12-18T10:16:46.789Z,98639.09
2018-12-18T10:19:15.053Z,98630.69
2018-12-18T10:21:43.252Z,98622.66
2018-12-18T10:24:11.416Z,98622.63
2018-12-18T10:26:39.588Z,98615.70
2018-12-18T10:29:07.840Z,98617.25
2018-12-18T10:31:36.002Z,98617.89
2018-12-18T10:34:04.164Z,98619.65
2018-12-18T10:36:32.364Z,98618.11
2018-12-18T10:39:00.550Z,98603.08
2018-12-18T10:41:28.728Z,98590.57
2018-12-18T10:43:56.946Z,98593.78
2018-12-18T10:46:25.121Z,98586.12
2018-12-18T10:48:53.420Z,98578.00
2018-12-18T10:51:21.960Z,98580.31
2018-12-18T10:53:50.154Z,98575.56
2018-12-18T10:56:18.412Z,98568.78
2018-12-18T10:58:46.835Z,98564.91
2018-12-18T11:01:17.044Z,98563.37
2018-12-18T11:03:45.217Z,98565.66
2018-12-18T11:06:13.424Z,98565.74
2018-12-18T11:08:41.630Z,98559.34
2018-12-18T11:11:10.040Z,98555.35
2018-12-18T11:13:38.247Z,98558.36
2018-12-18T11:16:06.444Z,98544.56
2018-12-18T11:18:34.632Z,98542.52
2018-12-18T11:21:02.834Z,98536.63
2018-12-18T11:23:31.011Z,98535.84
2018-12-18T11:25:59.189Z,98529.87
2018-12-18T11:28:27.404Z,98525.77
2018-12-18T11:30:55.598Z,98530.31
2018-12-18T11:33:23.766Z,98528.91
2018-12-18T11:35:51.964Z,98536.83
2018-12-18T11:38:20.154Z,98539.50
2018-12-18T11:40:48.337Z,98523.83
2018-12-18T11:43:16.536Z,98521.54
2018-12-18T11:45:44.723Z,98517.89
2018-12-18T11:48:12.914Z,98525.91
2018-12-18T11:50:41.257Z,98525.11
2018-12-18T11:53:09.430Z,98504.44
2018-12-18T11:55:37.645Z,98505.45
2018-12-18T11:58:05.844Z,98519.73
2018-12-18T12:00:34.040Z,98502.31
2018-12-18T12:03:02.398Z,98520.80
2018-12-18T12:05:30.628Z,98519.41
2018-12-18T12:07:58.807Z,98515.94
2018-12-18T12:10:27.001Z,98522.55
2018-12-18T12:12:55.206Z,98511.44
2018-12-18T12:15:23.380Z,98516.22
2018-12-18T12:17:51.891Z,98515.17
2018-12-18T12:20:20.106Z,98513.21
2018-12-18T12:22:48.280Z,98513.42
2018-12-18T12:25:16.470Z,98514.72
2018-12-18T12:27:50.218Z,98516.73
2018-12-18T12:30:18.400Z,98517.45
2018-12-18T12:32:46.590Z,98513.94
2018-12-18T12:35:14.870Z,98512.67
2018-12-18T12:37:43.054Z,98508.98
2018-12-18T12:40:11.238Z,98517.16
2018-12-18T12:42:39.470Z,98514.16
2018-12-18T12:45:08.364Z,98512.80
2018-12-18T12:47:36.555Z,98513.56
2018-12-18T12:50:06.368Z,98512.34
2018-12-18T12:52:34.541Z,98511.06
2018-12-18T12:55:02.859Z,98507.02
2018-12-18T12:57:31.078Z,98500.76
2018-12-18T12:59:59.260Z,98505.89
2018-12-18T13:02:27.445Z,98497.98
2018-12-18T13:04:55.668Z,98503.02
2018-12-18T13:07:23.858Z,98505.64
2018-12-18T13:09:52.045Z,98513.53
2018-12-18T13:12:20.312Z,98504.81
2018-12-18T13:14:48.501Z,98503.44
2018-12-18T13:17:16.681Z,98505.42
2018-12-18T13:19:44.873Z,98506.81
2018-12-18T13:22:13.087Z,98504.41
2018-12-18T13:24:41.266Z,98500.78
2018-12-18T13:27:09.500Z,98504.05
2018-12-18T13:29:38.117Z,98511.44
2018-12-18T13:32:06.827Z,98503.81
2018-12-18T13:34:35.235Z,98501.45
2018-12-18T13:37:03.409Z,98502.70
2018-12-18T13:39:31.734Z,98505.88
2018-12-18T13:42:00.039Z,98506.50
2018-12-18T13:44:28.402Z,98507.70
2018-12-18T13:46:56.579Z,98498.20
2018-12-18T13:49:24.776Z,98499.43
2018-12-18T13:51:53.041Z,98495.51
2018-12-18T13:54:21.218Z,98504.75
2018-12-18T13:56:49.513Z,98508.22
2018-12-18T13:59:17.692Z,98509.44
2018-12-18T14:01:45.874Z,98498.91
2018-12-18T14:04:14.141Z,98505.92
2018-12-18T14:06:42.313Z,98495.20
2018-12-18T14:09:10.498Z,98493.17
2018-12-18T14:11:38.768Z,98494.89
2018-12-18T14:14:06.957Z,98495.83
2018-12-18T14:16:35.131Z,98494.23
2018-12-18T14:19:03.416Z,98498.66
2018-12-18T14:21:31.607Z,98494.48
2018-12-18T14:23:59.801Z,98495.12
2018-12-18T14:26:28.001Z,98490.97
2018-12-18T14:28:56.261Z,98486.02
2018-12-18T14:31:24.462Z,98482.00
2018-12-18T14:33:52.834Z,98478.20
2018-12-18T14:36:21.015Z,98477.42
2018-12-18T14:38:49.296Z,98468.13
2018-12-18T14:41:17.497Z,98465.74
2018-12-18T14:43:45.676Z,98463.74
2018-12-18T14:46:13.847Z,98460.81
2018-12-18T14:48:42.089Z,98450.17
2018-12-18T14:51:10.270Z,98449.52
2018-12-18T14:53:38.443Z,98448.38
2018-12-18T14:56:06.652Z,98444.14
2018-12-18T14:58:34.823Z,98442.69
2018-12-18T15:01:02.997Z,98445.67
2018-12-18T15:03:31.186Z,98446.13
2018-12-18T15:05:59.347Z,98446.72
2018-12-18T15:08:27.523Z,98439.18
2018-12-18T15:10:55.731Z,98440.76
2018-12-18T15:13:23.907Z,98448.16
2018-12-18T15:15:52.101Z,98452.66
2018-12-18T15:18:20.330Z,98454.29
2018-12-18T15:20:48.498Z,98458.34
2018-12-18T15:23:16.696Z,98460.81
2018-12-18T15:25:44.900Z,98457.68
2018-12-18T15:28:15.586Z,98459.17
2018-12-18T15:30:43.759Z,98460.88
2018-12-18T15:33:11.968Z,98458.98
2018-12-18T15:35:40.133Z,98465.70
2018-12-18T15:38:08.313Z,98468.83
2018-12-18T15:40:36.844Z,98462.52
2018-12-18T15:43:05.004Z,98464.86
2018-12-18T15:45:33.182Z,98468.73
2018-12-18T15:48:01.386Z,98474.89
2018-12-18T15:50:29.556Z,98479.08
2018-12-18T15:52:57.725Z,98485.23
2018-12-18T15:55:25.983Z,98482.60
2018-12-18T15:57:54.151Z,98483.55
2018-12-18T16:00:22.330Z,98483.80
2018-12-18T16:02:50.613Z,98488.38
2018-12-18T16:05:18.837Z,98490.09
2018-12-18T16:07:47.036Z,98486.09
2018-12-18T16:10:15.243Z,98490.80
2018-12-18T16:12:44.734Z,98488.56
2018-12-18T16:15:13.011Z,98484.97
2018-12-18T16:17:41.780Z,98481.20
2018-12-18T16:20:10.280Z,98483.03
2018-12-18T16:22:38.469Z,98484.60
2018-12-18T16:25:06.996Z,98486.98
2018-12-18T16:27:35.246Z,98487.90
2018-12-18T16:30:04.270Z,98488.86
2018-12-18T16:32:32.458Z,98491.58
2018-12-18T16:35:00.666Z,98486.16
2018-12-18T16:37:28.852Z,98490.60
2018-12-18T16:39:57.056Z,98492.16
2018-12-18T16:42:25.382Z,98496.63
2018-12-18T16:44:53.664Z,98494.22
2018-12-18T16:47:21.848Z,98492.03
2018-12-18T16:49:50.029Z,98496.31
2018-12-18T16:52:18.227Z,98501.13
2018-12-18T16:54:46.554Z,98505.11
2018-12-18T16:57:14.757Z,98504.69
2018-12-18T16:59:42.933Z,98499.77
2018-12-18T17:02:11.196Z,98504.35
2018-12-18T17:04:39.379Z,98501.05
2018-12-18T17:07:07.685Z,98493.00
2018-12-18T17:09:35.890Z,98499.05
2018-12-18T17:12:04.078Z,98501.64
2018-12-18T17:14:32.259Z,98496.12
2018-12-18T17:17:00.577Z,98496.06
2018-12-18T17:19:28.930Z,98501.82
2018-12-18T17:21:57.104Z,98489.89
2018-12-18T17:24:25.304Z,98494.81
2018-12-18T17:26:53.485Z,98503.16
2018-12-18T17:29:21.656Z,98508.41
2018-12-18T17:31:49.854Z,98500.48
2018-12-18T17:34:18.153Z,98509.52
2018-12-18T17:36:46.417Z,98512.48
2018-12-18T17:39:14.831Z,98510.90
2018-12-18T17:41:43.014Z,98521.48
2018-12-18T17:44:11.185Z,98523.67
2018-12-18T17:46:39.558Z,98526.52
2018-12-18T17:49:07.849Z,98522.34
2018-12-18T17:51:36.028Z,98525.14
2018-12-18T17:54:04.241Z,98530.09
2018-12-18T17:56:32.704Z,98528.96
2018-12-18T17:59:00.878Z,98531.09
2018-12-18T18:01:29.222Z,98525.94
2018-12-18T18:03:57.405Z,98523.30
2018-12-18T18:06:26.375Z,98527.30
2018-12-18T18:08:54.580Z,98540.61
2018-12-18T18:11:22.750Z,98539.64
2018-12-18T18:13:50.934Z,98539.09
2018-12-18T18:16:19.199Z,98543.66
2018-12-18T18:18:47.475Z,98543.89
2018-12-18T18:21:15.670Z,98544.22
2018-12-18T18:23:43.856Z,98545.50
2018-12-18T18:26:12.958Z,98543.75
2018-12-18T18:28:41.136Z,98542.88
2018-12-18T18:31:09.369Z,98544.30
2018-12-18T18:33:37.636Z,98548.76
2018-12-18T18:36:05.918Z,98549.38
2018-12-18T18:38:34.127Z,98546.25
2018-12-18T18:41:02.309Z,98543.27
2018-12-18T18:43:30.482Z,98539.32
2018-12-18T18:45:58.695Z,98543.57
2018-12-18T18:48:26.869Z,98547.85
2018-12-18T18:50:55.046Z,98542.98
2018-12-18T18:53:23.347Z,98540.20
2018-12-18T18:55:51.533Z,98544.50
2018-12-18T18:58:19.794Z,98546.13
2018-12-18T19:00:48.070Z,98552.03
2018-12-18T19:03:16.241Z,98551.34
2018-12-18T19:05:44.421Z,98540.06
2018-12-18T19:08:12.606Z,98538.26
2018-12-18T19:10:40.846Z,98552.83
2018-12-18T19:13:09.026Z,98548.94
2018-12-18T19:15:37.299Z,98545.05
2018-12-18T19:18:05.468Z,98543.50
2018-12-18T19:20:33.647Z,98538.36
2018-12-18T19:23:01.869Z,98535.91
2018-12-18T19:25:30.049Z,98532.59
2018-12-18T19:27:58.236Z,98526.38
2018-12-18T19:30:26.471Z,98526.87
2018-12-18T19:32:54.644Z,98523.44
2018-12-18T19:35:22.852Z,98525.88
2018-12-18T19:37:51.075Z,98524.54
2018-12-18T19:40:19.270Z,98519.77
2018-12-18T19:42:47.544Z,98524.91
2018-12-18T19:45:15.750Z,98526.81
2018-12-18T19:47:43.928Z,98527.80
2018-12-18T19:50:12.199Z,98527.48
2018-12-18T19:52:40.418Z,98523.78
2018-12-18T19:55:08.606Z,98525.19
2018-12-18T19:57:36.792Z,98526.84
2018-12-18T20:00:09.888Z,98530.20
2018-12-18T20:02:38.058Z,98534.65
2018-12-18T20:05:06.781Z,98528.38
2018-12-18T20:07:35.018Z,98526.66
2018-12-18T20:10:03.406Z,98532.30
2018-12-18T20:12:31.674Z,98530.52
2018-12-18T20:14:59.880Z,98528.27
2018-12-18T20:17:28.327Z,98531.03
2018-12-18T20:19:56.534Z,98534.18
2018-12-18T20:22:25.288Z,98528.72
2018-12-18T20:24:53.467Z,98525.77
2018-12-18T20:27:21.643Z,98528.08
2018-12-18T20:29:50.367Z,98529.06
2018-12-18T20:32:18.555Z,98532.73
2018-12-18T20:34:46.731Z,98536.27
2018-12-18T20:37:18.215Z,98535.63
2018-12-18T20:39:45.446Z,98528.84
2018-12-18T20:42:13.621Z,98525.33
2018-12-18T20:44:41.813Z,98525.34
2018-12-18T20:47:10.213Z,98522.77
2018-12-18T20:49:38.531Z,98522.75
2018-12-18T20:52:06.722Z,98522.64
2018-12-18T20:54:34.984Z,98520.65
2018-12-18T20:57:03.267Z,98528.74
2018-12-18T20:59:31.499Z,98532.23
2018-12-18T21:01:59.997Z,98528.28
2018-12-18T21:04:28.430Z,98519.33
2018-12-18T21:06:56.614Z,98516.25
2018-12-18T21:09:24.784Z,98510.50
2018-12-18T21:11:53.105Z,98508.75
2018-12-18T21:14:21.301Z,98507.78
2018-12-18T21:16:49.484Z,98505.75
2018-12-18T21:19:17.809Z,98509.77
2018-12-18T21:21:46.080Z,98511.94
2018-12-18T21:24:14.363Z,98515.02
2018-12-18T21:26:42.644Z,98523.58
2018-12-18T21:29:10.843Z,98513.94
2018-12-18T21:31:39.021Z,98510.79
2018-12-18T21:34:07.200Z,98515.18
2018-12-18T21:36:35.413Z,98510.15
2018-12-18T21:39:05.691Z,98510.92
2018-12-18T21:41:33.870Z,98510.38
2018-12-18T21:44:02.214Z,98504.59
2018-12-18T21:46:30.398Z,98500.44
2018-12-18T21:48:58.672Z,98497.38
2018-12-18T21:51:26.887Z,98499.63
2018-12-18T21:53:55.069Z,98500.30
2018-12-18T21:56:23.321Z,98502.98
2018-12-18T21:58:51.509Z,98500.25
2018-12-18T22:01:19.693Z,98486.48
2018-12-18T22:03:47.870Z,98488.94
2018-12-18T22:06:16.145Z,98487.66
2018-12-18T22:08:44.329Z,98489.74
2018-12-18T22:11:12.606Z,98486.23
2018-12-18T22:13:40.817Z,98487.06
2018-12-18T22:16:09.057Z,98491.30
2018-12-18T22:18:37.240Z,98488.13
2018-12-18T22:21:05.526Z,98480.72
2018-12-18T22:23:33.702Z,98485.11
2018-12-18T22:26:01.870Z,98488.38
2018-12-18T22:28:30.245Z,98478.95
2018-12-18T22:30:58.417Z,98486.03
2018-12-18T22:33:26.588Z,98480.27
2018-12-18T22:35:54.794Z,98475.30
2018-12-18T22:38:22.977Z,98475.61
2018-12-18T22:40:51.219Z,98474.49
2018-12-18T22:43:19.421Z,98477.97
2018-12-18T22:45:47.698Z,98478.42
2018-12-18T22:48:15.878Z,98471.52
2018-12-18T22:50:44.184Z,98467.51
2018-12-18T22:53:12.370Z,98465.61
2018-12-18T22:55:44.843Z,98468.27
2018-12-18T22:58:10.855Z,98461.24
2018-12-18T23:00:44.710Z,98459.02
2018-12-18T23:03:12.910Z,98453.88
2018-12-18T23:05:41.071Z,98451.97
2018-12-18T23:08:09.378Z,98445.53
2018-12-18T23:10:37.832Z,98449.67
2018-12-18T23:13:05.993Z,98439.47
2018-12-18T23:15:34.172Z,98433.61
2018-12-18T23:18:02.368Z,98432.46
2018-12-18T23:20:30.674Z,98428.68
2018-12-18T23:22:58.857Z,98422.13
2018-12-18T23:25:27.069Z,98423.01
2018-12-18T23:27:55.261Z,98429.11
2018-12-18T23:30:23.433Z,98433.42
2018-12-18T23:32:51.656Z,98421.43
2018-12-18T23:35:19.837Z,98423.03
2018-12-18T23:37:48.029Z,98413.51
2018-12-18T23:40:16.222Z,98419.88
2018-12-18T23:42:44.391Z,98418.52
2018-12-18T23:45:12.559Z,98411.79
2018-12-18T23:47:40.764Z,98407.83
2018-12-18T23:50:09.037Z,98399.95
2018-12-18T23:52:37.212Z,98396.59
2018-12-18T23:55:05.876Z,98389.97
2018-12-18T23:57:34.045Z,98388.77
